Tiona, New York
Current Conditions -  °F | °C
As of 2:53 AM on Wednesday 22 Oct 2014 (Local Time) from KBGM Reporting Station
Light Rain Light Rain  
Wind Chill: 45°   Ceiling: 700
Heat Index: 49°   Visibility: 10mi
Dew Point: 47°   Wind: 9mph
Humidity: 93%   Direction: 40°NE
Pressure: 29.97"   Gusts: NA
Location:  42.2341°N, 76.1713°W
Report Text: KBGM 220653Z AUTO 04008KT 10SM -RA OVC007 09/08 A2997 RMK AO2 RAB23 SLP152 P0000 T00940083
Loading
Personal Weather Stations






























Interactive Weather Map New forecast layout! Learn more

10-Day Weather Forecast

Advertisements
Track Severe Weather on mobile